Time;durP1;ratioP1;P1;durP2;ratioP2;P2;SDS_P1;SDS_P2;PMS_P1;PMS_P2;Temp;Humidity;BMP_temperature;BMP_pressure;BME280_temperature;BME280_humidity;BME280_pressure;Samples;Min_cycle;Max_cycle;Signal;HPM_P1;HPM_P2
2023/09/27 00:00:56;;;;;;;4.55;1.83;;;;;;;;;;5018915;28;20116;-67
2023/09/27 00:03:23;;;;;;;5.53;2.22;;;;;;;;;;5024615;28;20049;-67
2023/09/27 00:05:49;;;;;;;4.30;1.67;;;;;;;;;;5022906;28;20037;-67
2023/09/27 00:08:15;;;;;;;5.25;1.88;;;;;;;;;;5023927;28;20036;-67
2023/09/27 00:10:41;;;;;;;5.40;2.33;;;;;;;;;;5017242;28;20477;-67
2023/09/27 00:13:07;;;;;;;4.18;2.38;;;;;;;;;;5022314;28;20109;-67
2023/09/27 00:15:33;;;;;;;3.95;1.92;;;;;;;;;;5023659;28;20041;-67
2023/09/27 00:17:59;;;;;;;3.65;1.80;;;;;;;;;;5022617;28;20026;-67
2023/09/27 00:20:25;;;;;;;4.65;1.85;;;;;;;;;;5017915;28;20024;-67
2023/09/27 00:22:54;;;;;;;2.22;1.70;;;;;;;;;;5020727;28;20033;-67
2023/09/27 00:25:20;;;;;;;3.00;1.70;;;;;;;;;;5024743;28;20536;-67
2023/09/27 00:27:46;;;;;;;5.80;1.80;;;;;;;;;;5025541;28;20025;-67
2023/09/27 00:30:16;;;;;;;6.28;3.40;;;;;;;;;;5020893;28;20474;-67
2023/09/27 00:32:45;;;;;;;6.88;1.83;;;;;;;;;;5021066;28;20037;-67
2023/09/27 00:35:18;;;;;;;3.00;1.67;;;;;;;;;;5020856;28;20457;-67
2023/09/27 00:37:44;;;;;;;4.82;1.98;;;;;;;;;;5021678;28;20137;-67
2023/09/27 00:40:13;;;;;;;4.68;2.30;;;;;;;;;;5025160;28;20053;-68
2023/09/27 00:42:39;;;;;;;5.57;2.47;;;;;;;;;;5022826;28;20022;-67
2023/09/27 00:45:05;;;;;;;8.15;2.65;;;;;;;;;;5021918;28;20029;-67
2023/09/27 00:47:32;;;;;;;4.95;1.98;;;;;;;;;;5024415;28;20063;-67
2023/09/27 00:49:58;;;;;;;5.57;2.60;;;;;;;;;;5024661;28;20041;-68
2023/09/27 00:52:24;;;;;;;5.97;1.80;;;;;;;;;;5018728;28;20500;-68
2023/09/27 00:54:51;;;;;;;3.58;2.50;;;;;;;;;;5020307;28;20029;-67
2023/09/27 00:57:18;;;;;;;6.85;2.13;;;;;;;;;;5021883;28;20049;-67
2023/09/27 00:59:44;;;;;;;3.10;1.70;;;;;;;;;;5027882;28;20124;-67
2023/09/27 01:02:10;;;;;;;4.88;1.90;;;;;;;;;;5020257;28;20029;-67
2023/09/27 01:04:37;;;;;;;6.30;2.33;;;;;;;;;;5020976;28;20041;-70
2023/09/27 01:07:03;;;;;;;6.13;1.85;;;;;;;;;;5018310;28;20518;-67
2023/09/27 01:09:31;;;;;;;6.30;1.85;;;;;;;;;;5016994;28;20091;-68
2023/09/27 01:11:57;;;;;;;3.58;1.90;;;;;;;;;;5026964;28;20042;-67
2023/09/27 01:14:24;;;;;;;5.28;2.05;;;;;;;;;;5019703;28;20056;-67
2023/09/27 01:16:50;;;;;;;5.60;2.25;;;;;;;;;;5021899;28;20080;-67
2023/09/27 01:19:16;;;;;;;5.28;1.83;;;;;;;;;;5020451;28;20025;-67
2023/09/27 01:21:43;;;;;;;8.93;2.38;;;;;;;;;;5023724;28;20037;-67
2023/09/27 01:24:10;;;;;;;5.65;2.00;;;;;;;;;;5020924;28;20030;-67
2023/09/27 01:26:37;;;;;;;7.28;2.63;;;;;;;;;;5027531;28;20024;-67
2023/09/27 01:29:04;;;;;;;3.92;2.00;;;;;;;;;;5019055;28;20044;-67
2023/09/27 01:31:30;;;;;;;6.05;2.20;;;;;;;;;;5035096;28;20119;-67
2023/09/27 01:33:56;;;;;;;4.15;2.00;;;;;;;;;;5027610;28;20033;-67
2023/09/27 01:36:22;;;;;;;7.80;2.25;;;;;;;;;;5020378;28;20021;-67
2023/09/27 01:38:48;;;;;;;2.83;2.10;;;;;;;;;;5026965;28;20453;-67
2023/09/27 01:41:15;;;;;;;3.33;2.28;;;;;;;;;;5026840;28;20037;-67
2023/09/27 01:43:41;;;;;;;6.95;2.53;;;;;;;;;;5025761;28;20026;-67
2023/09/27 01:46:07;;;;;;;5.00;2.38;;;;;;;;;;5023858;28;20453;-67
2023/09/27 01:48:33;;;;;;;4.18;1.98;;;;;;;;;;5021573;28;20393;-67
2023/09/27 01:50:59;;;;;;;6.70;2.15;;;;;;;;;;5024260;28;20068;-67
2023/09/27 01:53:25;;;;;;;7.45;4.13;;;;;;;;;;5023837;28;20030;-67
2023/09/27 01:55:51;;;;;;;11.13;2.60;;;;;;;;;;5024811;28;20022;-67
2023/09/27 01:58:18;;;;;;;4.75;2.53;;;;;;;;;;5036880;28;20067;-67
2023/09/27 02:00:44;;;;;;;5.32;2.28;;;;;;;;;;5020501;28;20087;-67
2023/09/27 02:03:10;;;;;;;4.05;2.38;;;;;;;;;;5018031;28;20033;-67
2023/09/27 02:05:36;;;;;;;10.20;3.13;;;;;;;;;;5022540;28;20056;-67
2023/09/27 02:08:02;;;;;;;5.50;2.25;;;;;;;;;;5033593;28;20063;-67
2023/09/27 02:10:28;;;;;;;3.78;1.90;;;;;;;;;;5021764;28;20490;-67
2023/09/27 02:12:54;;;;;;;4.80;2.35;;;;;;;;;;5028421;28;21005;-67
2023/09/27 02:15:20;;;;;;;9.25;2.33;;;;;;;;;;5021135;28;20022;-67
2023/09/27 02:17:46;;;;;;;7.43;2.40;;;;;;;;;;5022927;28;20504;-67
2023/09/27 02:20:14;;;;;;;4.80;1.80;;;;;;;;;;5028320;28;20064;-67
2023/09/27 02:22:41;;;;;;;3.60;2.42;;;;;;;;;;5023836;28;20033;-67
2023/09/27 02:25:13;;;;;;;4.63;2.20;;;;;;;;;;5018950;28;20040;-67
2023/09/27 02:27:40;;;;;;;8.73;2.30;;;;;;;;;;5025519;28;20398;-67
2023/09/27 02:30:07;;;;;;;6.78;2.38;;;;;;;;;;5026232;28;20063;-67
2023/09/27 02:32:34;;;;;;;10.50;3.40;;;;;;;;;;5016639;28;20613;-68
2023/09/27 02:35:00;;;;;;;6.57;1.88;;;;;;;;;;5022799;28;20458;-67
2023/09/27 02:37:27;;;;;;;6.80;2.25;;;;;;;;;;5024526;28;20025;-68
2023/09/27 02:39:53;;;;;;;7.05;4.30;;;;;;;;;;5025969;28;20429;-69
2023/09/27 02:42:20;;;;;;;9.63;2.40;;;;;;;;;;5024824;28;20037;-67
2023/09/27 02:44:47;;;;;;;8.02;2.92;;;;;;;;;;5017301;28;20029;-67
2023/09/27 02:47:13;;;;;;;5.40;2.15;;;;;;;;;;5026933;28;20144;-67
2023/09/27 02:49:39;;;;;;;5.97;2.55;;;;;;;;;;5019438;28;20508;-67
2023/09/27 02:52:09;;;;;;;4.18;2.80;;;;;;;;;;5025630;28;20026;-68
2023/09/27 02:54:35;;;;;;;4.00;2.20;;;;;;;;;;5022307;28;20555;-67
2023/09/27 02:57:02;;;;;;;5.50;2.53;;;;;;;;;;5026669;28;20462;-67
2023/09/27 02:59:29;;;;;;;8.20;2.13;;;;;;;;;;5022169;28;20087;-68
2023/09/27 03:01:55;;;;;;;7.07;2.42;;;;;;;;;;5027095;28;20086;-67
2023/09/27 03:04:22;;;;;;;5.68;2.13;;;;;;;;;;5020914;28;20492;-67
2023/09/27 03:06:49;;;;;;;7.93;2.13;;;;;;;;;;5024701;28;20124;-67
2023/09/27 03:09:16;;;;;;;5.25;2.10;;;;;;;;;;5022501;28;20044;-67
2023/09/27 03:11:43;;;;;;;8.80;2.50;;;;;;;;;;5025734;28;20033;-68
2023/09/27 03:14:10;;;;;;;8.95;3.03;;;;;;;;;;5033111;28;20308;-69
2023/09/27 03:16:37;;;;;;;4.28;2.47;;;;;;;;;;5017201;28;20056;-68
2023/09/27 03:19:03;;;;;;;3.33;2.00;;;;;;;;;;5025450;28;20112;-67
2023/09/27 03:21:29;;;;;;;6.13;2.00;;;;;;;;;;5026657;28;20512;-67
2023/09/27 03:23:55;;;;;;;6.40;2.30;;;;;;;;;;5020924;28;20600;-71
2023/09/27 03:26:22;;;;;;;5.30;2.22;;;;;;;;;;5017125;28;20688;-68
2023/09/27 03:28:50;;;;;;;5.63;2.75;;;;;;;;;;5022212;28;20033;-68
2023/09/27 03:31:17;;;;;;;6.13;2.25;;;;;;;;;;5023712;28;20116;-68
2023/09/27 03:33:43;;;;;;;4.97;2.38;;;;;;;;;;5027338;28;20067;-68
2023/09/27 03:36:09;;;;;;;5.32;2.20;;;;;;;;;;5028695;28;20655;-69
2023/09/27 03:38:36;;;;;;;2.10;1.90;;;;;;;;;;5022445;28;20054;-69
2023/09/27 03:41:02;;;;;;;7.93;2.38;;;;;;;;;;5022876;28;20025;-67
2023/09/27 03:43:28;;;;;;;4.07;2.33;;;;;;;;;;5023542;28;20037;-68
2023/09/27 03:45:55;;;;;;;4.55;2.22;;;;;;;;;;5028327;28;20032;-67
2023/09/27 03:48:21;;;;;;;4.95;2.00;;;;;;;;;;5021391;28;20033;-67
2023/09/27 03:50:47;;;;;;;6.03;2.20;;;;;;;;;;5023104;28;20037;-67
2023/09/27 03:53:14;;;;;;;6.82;2.65;;;;;;;;;;5019260;28;20029;-67
2023/09/27 03:55:41;;;;;;;3.88;2.50;;;;;;;;;;5022260;28;20026;-70
2023/09/27 03:58:07;;;;;;;7.43;2.30;;;;;;;;;;5023124;28;20030;-67
2023/09/27 04:00:33;;;;;;;5.85;2.22;;;;;;;;;;5023324;28;20022;-68
2023/09/27 04:02:59;;;;;;;8.27;2.30;;;;;;;;;;5023616;28;20036;-67
2023/09/27 04:05:26;;;;;;;8.73;2.40;;;;;;;;;;5018449;28;20033;-67
2023/09/27 04:07:52;;;;;;;10.18;2.58;;;;;;;;;;5019814;28;20155;-67
2023/09/27 04:10:19;;;;;;;6.05;2.97;;;;;;;;;;5023133;28;20025;-66
2023/09/27 04:12:46;;;;;;;7.95;2.47;;;;;;;;;;5024381;28;20021;-68
2023/09/27 04:15:12;;;;;;;5.60;2.35;;;;;;;;;;5014977;28;20045;-67
2023/09/27 04:17:38;;;;;;;12.57;2.70;;;;;;;;;;5019582;28;20037;-66
2023/09/27 04:20:15;;;;;;;7.50;2.70;;;;;;;;;;5021130;28;20041;-67
2023/09/27 04:22:43;;;;;;;6.57;2.50;;;;;;;;;;5022967;28;20030;-67
2023/09/27 04:25:12;;;;;;;7.43;2.38;;;;;;;;;;5023294;28;20064;-67
2023/09/27 04:27:38;;;;;;;5.80;2.45;;;;;;;;;;5020824;28;20041;-67
2023/09/27 04:30:07;;;;;;;8.43;2.97;;;;;;;;;;5019216;28;20614;-67
2023/09/27 04:32:33;;;;;;;6.63;2.40;;;;;;;;;;5024366;28;20448;-67
2023/09/27 04:34:59;;;;;;;8.70;2.78;;;;;;;;;;5020224;28;20504;-67
2023/09/27 04:37:25;;;;;;;6.70;2.85;;;;;;;;;;5019301;28;20389;-67
2023/09/27 04:39:54;;;;;;;7.97;2.78;;;;;;;;;;5020416;28;20056;-67
2023/09/27 04:42:20;;;;;;;7.60;2.75;;;;;;;;;;5022763;28;20029;-67
2023/09/27 04:44:46;;;;;;;8.05;2.53;;;;;;;;;;5023758;28;20033;-67
2023/09/27 04:47:12;;;;;;;6.80;3.17;;;;;;;;;;5025985;28;20402;-67
2023/09/27 04:49:38;;;;;;;5.90;2.33;;;;;;;;;;5023394;28;20025;-67
2023/09/27 04:52:04;;;;;;;9.15;3.50;;;;;;;;;;5048724;28;20556;-67
2023/09/27 04:54:31;;;;;;;9.35;3.00;;;;;;;;;;5024552;28;20067;-66
2023/09/27 04:56:57;;;;;;;7.72;3.50;;;;;;;;;;5021573;28;20021;-66
2023/09/27 04:59:24;;;;;;;10.50;3.00;;;;;;;;;;5023087;28;20034;-66
2023/09/27 05:01:51;;;;;;;8.18;2.70;;;;;;;;;;5020354;28;20536;-66
2023/09/27 05:04:18;;;;;;;9.18;2.92;;;;;;;;;;5020941;28;20028;-67
2023/09/27 05:06:44;;;;;;;6.47;3.17;;;;;;;;;;5020600;28;20036;-66
2023/09/27 05:09:11;;;;;;;6.63;2.42;;;;;;;;;;5020582;28;20136;-67
2023/09/27 05:11:37;;;;;;;8.00;2.47;;;;;;;;;;5026343;28;20028;-67
2023/09/27 05:14:05;;;;;;;7.05;2.75;;;;;;;;;;5028550;28;20466;-66
2023/09/27 05:16:36;;;;;;;10.88;2.38;;;;;;;;;;5023399;28;20076;-67
2023/09/27 05:19:02;;;;;;;6.13;2.45;;;;;;;;;;5023743;28;20021;-67
2023/09/27 05:21:28;;;;;;;11.30;3.28;;;;;;;;;;5021993;28;21315;-66
2023/09/27 05:23:54;;;;;;;9.65;4.03;;;;;;;;;;5027035;28;20544;-67
2023/09/27 05:26:20;;;;;;;8.18;2.90;;;;;;;;;;5022952;28;20038;-67
2023/09/27 05:28:46;;;;;;;9.13;2.75;;;;;;;;;;5021817;28;20297;-66
2023/09/27 05:31:12;;;;;;;6.80;3.30;;;;;;;;;;5021194;28;20083;-67
2023/09/27 05:33:38;;;;;;;15.90;3.72;;;;;;;;;;5023886;28;20039;-67
2023/09/27 05:36:05;;;;;;;5.35;2.78;;;;;;;;;;5025607;28;20811;-67
2023/09/27 05:38:31;;;;;;;11.55;3.50;;;;;;;;;;5022612;28;20500;-67
2023/09/27 05:40:57;;;;;;;10.32;3.22;;;;;;;;;;5023777;28;20021;-67
2023/09/27 05:43:23;;;;;;;20.15;3.78;;;;;;;;;;5023929;28;20120;-67
2023/09/27 05:45:49;;;;;;;9.05;3.35;;;;;;;;;;5025991;28;20021;-66
2023/09/27 05:48:15;;;;;;;6.25;2.75;;;;;;;;;;5024027;28;20032;-66
2023/09/27 05:50:44;;;;;;;10.63;2.63;;;;;;;;;;5022824;28;20033;-66
2023/09/27 05:53:17;;;;;;;11.65;3.10;;;;;;;;;;5026336;28;20492;-65
2023/09/27 05:55:44;;;;;;;6.93;2.80;;;;;;;;;;5025448;28;20393;-66
2023/09/27 05:58:10;;;;;;;10.32;2.72;;;;;;;;;;5018785;28;20536;-66
2023/09/27 06:00:46;;;;;;;8.02;2.80;;;;;;;;;;5020201;28;20079;-66
2023/09/27 06:03:12;;;;;;;5.53;3.00;;;;;;;;;;5021235;28;20026;-66
2023/09/27 06:05:38;;;;;;;11.65;3.05;;;;;;;;;;5024280;28;20033;-66
2023/09/27 06:08:05;;;;;;;5.53;2.75;;;;;;;;;;5031793;28;20036;-65
2023/09/27 06:10:31;;;;;;;11.60;2.88;;;;;;;;;;5020906;28;20046;-66
2023/09/27 06:12:57;;;;;;;12.70;3.20;;;;;;;;;;5031481;28;20484;-66
2023/09/27 06:15:23;;;;;;;5.38;2.30;;;;;;;;;;5021220;28;20052;-66
2023/09/27 06:17:49;;;;;;;13.00;2.80;;;;;;;;;;5021479;28;20053;-66
2023/09/27 06:20:22;;;;;;;8.02;2.60;;;;;;;;;;5022516;28;20485;-67
2023/09/27 06:22:49;;;;;;;7.18;3.08;;;;;;;;;;5029883;28;20021;-66
2023/09/27 06:25:16;;;;;;;13.20;2.90;;;;;;;;;;5024632;28;20489;-66
2023/09/27 06:27:42;;;;;;;12.32;2.83;;;;;;;;;;5037194;28;20051;-66
2023/09/27 06:30:09;;;;;;;7.90;3.40;;;;;;;;;;5035031;28;20072;-66
2023/09/27 06:32:35;;;;;;;10.20;2.67;;;;;;;;;;5021022;28;20498;-67
2023/09/27 06:35:10;;;;;;;7.07;2.70;;;;;;;;;;5024551;28;20565;-67
2023/09/27 06:37:37;;;;;;;11.07;2.92;;;;;;;;;;5010372;28;20116;-66
2023/09/27 06:40:08;;;;;;;11.70;3.05;;;;;;;;;;5022563;28;20642;-66
2023/09/27 06:42:34;;;;;;;5.10;2.40;;;;;;;;;;5026080;28;20494;-66
2023/09/27 06:45:00;;;;;;;7.68;2.92;;;;;;;;;;5023741;28;20441;-67
2023/09/27 06:47:34;;;;;;;6.68;2.78;;;;;;;;;;5025449;28;20456;-66
2023/09/27 06:50:00;;;;;;;6.63;2.55;;;;;;;;;;5021909;28;20039;-65
2023/09/27 06:52:29;;;;;;;6.38;2.47;;;;;;;;;;5025007;28;20523;-66
2023/09/27 06:54:55;;;;;;;11.27;3.20;;;;;;;;;;5021650;28;20045;-66
2023/09/27 06:57:21;;;;;;;8.40;3.10;;;;;;;;;;5026655;28;20545;-67
2023/09/27 06:59:47;;;;;;;7.15;2.95;;;;;;;;;;5025418;28;20030;-66
2023/09/27 07:02:16;;;;;;;5.60;2.70;;;;;;;;;;5024569;28;20031;-67
2023/09/27 07:04:43;;;;;;;4.93;2.65;;;;;;;;;;5029513;28;20091;-66
2023/09/27 07:07:11;;;;;;;5.32;3.13;;;;;;;;;;5025939;28;20044;-66
2023/09/27 07:09:37;;;;;;;13.25;2.85;;;;;;;;;;5045646;28;20147;-66
2023/09/27 07:12:03;;;;;;;4.53;2.28;;;;;;;;;;5018348;28;20036;-66
2023/09/27 07:14:29;;;;;;;8.55;2.88;;;;;;;;;;5023138;28;20681;-67
2023/09/27 07:16:55;;;;;;;5.53;2.85;;;;;;;;;;5018472;28;20032;-66
2023/09/27 07:19:23;;;;;;;9.07;2.83;;;;;;;;;;5019672;28;20032;-66
2023/09/27 07:21:49;;;;;;;8.25;3.13;;;;;;;;;;5051694;28;20107;-66
2023/09/27 07:24:15;;;;;;;9.85;2.78;;;;;;;;;;5020105;28;20049;-66
2023/09/27 07:26:42;;;;;;;10.80;3.15;;;;;;;;;;5025562;28;20033;-66
2023/09/27 07:29:09;;;;;;;6.57;2.78;;;;;;;;;;5019337;28;20488;-67
2023/09/27 07:31:35;;;;;;;7.20;2.95;;;;;;;;;;5018559;28;20037;-67
2023/09/27 07:34:02;;;;;;;5.07;2.38;;;;;;;;;;5014158;28;20055;-67
2023/09/27 07:36:29;;;;;;;5.13;2.40;;;;;;;;;;5018662;28;21050;-67
2023/09/27 07:39:01;;;;;;;8.52;2.95;;;;;;;;;;5035488;28;20139;-67
2023/09/27 07:41:28;;;;;;;6.63;3.17;;;;;;;;;;5013397;28;20026;-67
2023/09/27 07:43:54;;;;;;;8.80;2.70;;;;;;;;;;5018705;28;20497;-66
2023/09/27 07:46:21;;;;;;;12.55;3.15;;;;;;;;;;5020880;28;20168;-67
2023/09/27 07:48:47;;;;;;;8.63;2.80;;;;;;;;;;5019254;28;20409;-66
2023/09/27 07:51:14;;;;;;;8.93;3.00;;;;;;;;;;5036463;28;20035;-66
2023/09/27 07:53:41;;;;;;;7.03;3.33;;;;;;;;;;5017279;28;20032;-70
2023/09/27 07:56:09;;;;;;;7.60;3.20;;;;;;;;;;5018112;28;20303;-66
2023/09/27 07:58:36;;;;;;;9.43;3.63;;;;;;;;;;5019065;28;20033;-66
2023/09/27 08:01:02;;;;;;;8.13;3.20;;;;;;;;;;5017280;28;20116;-66
2023/09/27 08:03:29;;;;;;;7.03;3.50;;;;;;;;;;5015593;28;20105;-67
2023/09/27 08:05:55;;;;;;;8.45;3.45;;;;;;;;;;5016104;28;20126;-66
2023/09/27 08:08:23;;;;;;;8.30;3.58;;;;;;;;;;5023088;28;20461;-66
2023/09/27 08:10:50;;;;;;;7.15;2.95;;;;;;;;;;5014475;28;20374;-66
2023/09/27 08:13:17;;;;;;;6.63;3.30;;;;;;;;;;5019883;28;20457;-66
2023/09/27 08:15:43;;;;;;;6.57;3.20;;;;;;;;;;5015036;28;20034;-66
2023/09/27 08:18:09;;;;;;;7.70;3.33;;;;;;;;;;5020912;28;20025;-66
2023/09/27 08:20:36;;;;;;;7.50;3.33;;;;;;;;;;5023327;28;20041;-67
2023/09/27 08:23:03;;;;;;;9.10;4.15;;;;;;;;;;5018059;28;20120;-66
2023/09/27 08:25:29;;;;;;;6.00;2.92;;;;;;;;;;5021773;28;20026;-65
2023/09/27 08:27:56;;;;;;;8.73;3.38;;;;;;;;;;5018356;28;20055;-65
2023/09/27 08:30:22;;;;;;;9.15;3.58;;;;;;;;;;5019367;28;20033;-66
2023/09/27 08:32:48;;;;;;;9.85;4.50;;;;;;;;;;5021082;28;20026;-65
2023/09/27 08:35:14;;;;;;;12.40;4.45;;;;;;;;;;5022746;28;20100;-65
2023/09/27 08:37:40;;;;;;;12.68;4.68;;;;;;;;;;5012851;28;20048;-65
2023/09/27 08:40:13;;;;;;;8.73;3.30;;;;;;;;;;5013015;28;20051;-65
2023/09/27 08:42:40;;;;;;;7.80;3.22;;;;;;;;;;5020371;28;20457;-65
2023/09/27 08:45:17;;;;;;;14.35;3.90;;;;;;;;;;5017408;28;20029;-65
2023/09/27 08:47:46;;;;;;;3.75;2.70;;;;;;;;;;5020411;28;20135;-66
2023/09/27 08:50:18;;;;;;;11.27;3.58;;;;;;;;;;5020316;28;20475;-65
2023/09/27 08:52:49;;;;;;;5.03;2.72;;;;;;;;;;5025025;28;20031;-65
2023/09/27 08:55:15;;;;;;;7.90;3.03;;;;;;;;;;5019344;28;20056;-64
2023/09/27 08:57:48;;;;;;;8.65;2.58;;;;;;;;;;5024124;28;20029;-66
2023/09/27 09:00:15;;;;;;;5.60;3.03;;;;;;;;;;5017614;28;20099;-65
2023/09/27 09:02:44;;;;;;;4.90;2.30;;;;;;;;;;5024090;28;20422;-65
2023/09/27 09:05:14;;;;;;;5.47;2.65;;;;;;;;;;5018861;28;20036;-65
2023/09/27 09:07:43;;;;;;;7.60;2.40;;;;;;;;;;5015843;28;20061;-65
2023/09/27 09:10:13;;;;;;;6.70;2.67;;;;;;;;;;5016154;28;20067;-63
2023/09/27 09:12:40;;;;;;;5.20;2.92;;;;;;;;;;5013549;28;20026;-64
2023/09/27 09:15:07;;;;;;;3.85;2.30;;;;;;;;;;5012191;28;20476;-65
2023/09/27 09:17:34;;;;;;;9.20;2.65;;;;;;;;;;5020640;28;20025;-65
2023/09/27 09:20:15;;;;;;;6.15;2.30;;;;;;;;;;5017496;28;20045;-65
2023/09/27 09:22:45;;;;;;;5.50;2.38;;;;;;;;;;5019508;28;20116;-69
2023/09/27 09:25:11;;;;;;;10.48;2.80;;;;;;;;;;5013070;28;20132;-71
2023/09/27 09:27:37;;;;;;;3.40;2.25;;;;;;;;;;5020725;28;20040;-69
2023/09/27 09:30:07;;;;;;;5.25;2.78;;;;;;;;;;5022911;28;20344;-70
2023/09/27 09:32:35;;;;;;;6.28;2.55;;;;;;;;;;5023686;28;20029;-71
2023/09/27 09:35:06;;;;;;;4.82;2.80;;;;;;;;;;5022447;28;20021;-72
2023/09/27 09:37:39;;;;;;;2.70;2.15;;;;;;;;;;5020315;28;20057;-71
2023/09/27 09:40:15;;;;;;;12.55;2.47;;;;;;;;;;5018221;28;20065;-70
2023/09/27 09:42:42;;;;;;;5.50;2.50;;;;;;;;;;5017803;28;20036;-72
2023/09/27 09:45:12;;;;;;;6.57;2.75;;;;;;;;;;5026771;28;20060;-70
2023/09/27 09:47:39;;;;;;;3.92;2.10;;;;;;;;;;5020297;28;20469;-72
2023/09/27 09:50:14;;;;;;;5.68;2.80;;;;;;;;;;5021582;28;20092;-71
2023/09/27 09:52:40;;;;;;;4.25;2.60;;;;;;;;;;5021242;28;20032;-71
2023/09/27 09:55:08;;;;;;;4.40;2.28;;;;;;;;;;5022591;28;20025;-70
2023/09/27 09:57:37;;;;;;;8.23;2.65;;;;;;;;;;5019689;28;20022;-64
2023/09/27 10:00:17;;;;;;;4.57;3.00;;;;;;;;;;5018886;28;20048;-64
2023/09/27 10:02:51;;;;;;;9.25;2.55;;;;;;;;;;5020870;28;20069;-63
2023/09/27 10:05:19;;;;;;;10.30;3.03;;;;;;;;;;5017457;28;20036;-64
2023/09/27 10:07:45;;;;;;;8.25;2.70;;;;;;;;;;5015953;28;20165;-62
2023/09/27 10:10:14;;;;;;;6.07;2.47;;;;;;;;;;5023161;28;20030;-62
2023/09/27 10:12:44;;;;;;;5.65;3.33;;;;;;;;;;5018459;28;20114;-62
2023/09/27 10:15:11;;;;;;;9.30;2.38;;;;;;;;;;5024403;28;20021;-63
2023/09/27 10:17:40;;;;;;;5.50;2.85;;;;;;;;;;5051306;28;20022;-65
2023/09/27 10:20:12;;;;;;;2.78;2.03;;;;;;;;;;5019214;28;20903;-65
2023/09/27 10:22:38;;;;;;;4.43;1.95;;;;;;;;;;5031915;28;20126;-67
2023/09/27 10:25:04;;;;;;;7.32;2.40;;;;;;;;;;5017018;28;20025;-68
2023/09/27 10:27:49;;;;;;;5.10;2.60;;;;;;;;;;5014951;28;20065;-69
2023/09/27 10:30:15;;;;;;;3.60;2.40;;;;;;;;;;5021927;28;20060;-69
2023/09/27 10:32:41;;;;;;;3.58;2.38;;;;;;;;;;5022365;28;20026;-69
2023/09/27 10:35:17;;;;;;;5.22;3.47;;;;;;;;;;5016733;28;20517;-69
2023/09/27 10:37:59;;;;;;;3.35;2.38;;;;;;;;;;5022054;28;21010;-70
2023/09/27 10:40:25;;;;;;;2.50;1.90;;;;;;;;;;5019993;28;20529;-69
2023/09/27 10:42:53;;;;;;;5.70;4.13;;;;;;;;;;5015365;28;20171;-69
2023/09/27 10:45:20;;;;;;;2.55;2.00;;;;;;;;;;5018153;28;20528;-69
2023/09/27 10:47:49;;;;;;;2.40;2.08;;;;;;;;;;5021473;28;20479;-70
2023/09/27 10:50:26;;;;;;;1.27;1.05;;;;;;;;;;5021471;28;20033;-70
2023/09/27 10:52:52;;;;;;;1.83;1.52;;;;;;;;;;5024564;28;20171;-68
2023/09/27 10:55:18;;;;;;;1.65;1.38;;;;;;;;;;5016620;28;20022;-70
2023/09/27 10:57:45;;;;;;;2.10;1.77;;;;;;;;;;5019285;28;20037;-69
2023/09/27 11:00:15;;;;;;;1.35;1.27;;;;;;;;;;5021976;28;20409;-69
2023/09/27 11:02:43;;;;;;;3.60;1.60;;;;;;;;;;5021122;28;20037;-71
2023/09/27 11:05:09;;;;;;;3.35;1.70;;;;;;;;;;5028610;28;20505;-71
2023/09/27 11:07:45;;;;;;;4.05;1.95;;;;;;;;;;5021114;28;20043;-70
2023/09/27 11:10:12;;;;;;;3.20;2.30;;;;;;;;;;5026267;28;20044;-69
2023/09/27 11:12:40;;;;;;;2.90;1.73;;;;;;;;;;5021572;28;20464;-69
2023/09/27 11:15:07;;;;;;;2.35;1.52;;;;;;;;;;5015846;28;20037;-69
2023/09/27 11:17:33;;;;;;;4.07;1.70;;;;;;;;;;5020296;28;20042;-69
2023/09/27 11:20:11;;;;;;;4.28;2.30;;;;;;;;;;5022990;28;20468;-70
2023/09/27 11:22:37;;;;;;;4.65;2.10;;;;;;;;;;5022034;28;20037;-70
2023/09/27 11:25:05;;;;;;;2.05;1.80;;;;;;;;;;5025992;28;20048;-70
2023/09/27 11:27:34;;;;;;;3.70;1.85;;;;;;;;;;5018374;28;20030;-69
2023/09/27 11:30:03;;;;;;;2.72;1.60;;;;;;;;;;5023159;28;20587;-69
2023/09/27 11:32:49;;;;;;;3.65;2.25;;;;;;;;;;5024832;28;20018;-69
2023/09/27 11:35:18;;;;;;;2.28;1.95;;;;;;;;;;5022830;28;20386;-68
2023/09/27 11:37:45;;;;;;;1.83;1.60;;;;;;;;;;5020679;28;20022;-69
2023/09/27 11:40:11;;;;;;;2.65;1.90;;;;;;;;;;5025251;28;20059;-70
2023/09/27 11:42:37;;;;;;;4.97;1.58;;;;;;;;;;5024188;28;20550;-70
2023/09/27 11:45:13;;;;;;;2.72;2.53;;;;;;;;;;5021041;28;20033;-71
2023/09/27 11:47:49;;;;;;;2.10;1.70;;;;;;;;;;5021600;28;20095;-70
2023/09/27 11:50:16;;;;;;;3.50;1.92;;;;;;;;;;5019753;28;20570;-70
2023/09/27 11:52:46;;;;;;;3.58;2.10;;;;;;;;;;5025547;28;20057;-71
2023/09/27 11:55:13;;;;;;;5.20;2.00;;;;;;;;;;5016031;28;20017;-70
2023/09/27 11:57:40;;;;;;;3.47;1.77;;;;;;;;;;5022714;28;20087;-67
2023/09/27 12:00:08;;;;;;;5.43;3.08;;;;;;;;;;5029186;28;20091;-68
2023/09/27 12:02:35;;;;;;;4.18;2.50;;;;;;;;;;5023435;28;20036;-68
2023/09/27 12:05:01;;;;;;;2.33;1.58;;;;;;;;;;5030257;28;20091;-69
2023/09/27 12:07:27;;;;;;;2.30;1.88;;;;;;;;;;5022558;28;20040;-67
2023/09/27 12:09:56;;;;;;;3.30;2.00;;;;;;;;;;5022823;28;20037;-67
2023/09/27 12:12:23;;;;;;;3.60;2.22;;;;;;;;;;5027842;28;20026;-68
2023/09/27 12:14:49;;;;;;;5.45;2.25;;;;;;;;;;5028448;28;20442;-69
2023/09/27 12:17:16;;;;;;;6.10;2.47;;;;;;;;;;5022121;28;20588;-69
2023/09/27 12:19:43;;;;;;;3.85;1.98;;;;;;;;;;5029610;28;20033;-68
2023/09/27 12:22:10;;;;;;;4.07;2.08;;;;;;;;;;5025129;28;20120;-68
2023/09/27 12:24:36;;;;;;;3.05;2.05;;;;;;;;;;5020140;28;20021;-69
2023/09/27 12:27:02;;;;;;;6.03;2.72;;;;;;;;;;5019313;28;20029;-69
2023/09/27 12:29:28;;;;;;;4.10;2.25;;;;;;;;;;5018784;28;20036;-69
2023/09/27 12:31:54;;;;;;;4.22;2.35;;;;;;;;;;5024074;28;20034;-67
2023/09/27 12:34:20;;;;;;;6.53;2.42;;;;;;;;;;5031145;28;20040;-67
2023/09/27 12:36:47;;;;;;;3.55;2.83;;;;;;;;;;5022247;28;20097;-68
2023/09/27 12:39:14;;;;;;;8.15;3.88;;;;;;;;;;5022646;28;20565;-68
2023/09/27 12:41:40;;;;;;;3.95;2.55;;;;;;;;;;5020797;28;20478;-68
2023/09/27 12:44:06;;;;;;;4.75;2.00;;;;;;;;;;5027796;28;20030;-69
2023/09/27 12:46:32;;;;;;;5.70;3.70;;;;;;;;;;5019887;28;20036;-70
2023/09/27 12:48:59;;;;;;;3.90;2.58;;;;;;;;;;5022414;28;20279;-69
2023/09/27 12:51:26;;;;;;;4.70;2.47;;;;;;;;;;5021263;28;20037;-69
2023/09/27 12:53:53;;;;;;;6.72;3.55;;;;;;;;;;5021661;28;20145;-69
2023/09/27 12:56:19;;;;;;;5.93;3.08;;;;;;;;;;5027973;28;20029;-69
2023/09/27 12:58:48;;;;;;;5.85;3.17;;;;;;;;;;5023568;28;20030;-67
2023/09/27 13:01:18;;;;;;;7.72;2.72;;;;;;;;;;5036388;28;20026;-73
2023/09/27 13:03:47;;;;;;;7.57;2.83;;;;;;;;;;5019021;28;20041;-72
2023/09/27 13:06:13;;;;;;;6.00;2.35;;;;;;;;;;5034872;28;20030;-70
2023/09/27 13:08:39;;;;;;;5.50;2.60;;;;;;;;;;5022228;28;20403;-69
2023/09/27 13:11:05;;;;;;;7.15;2.33;;;;;;;;;;5026557;28;20034;-71
2023/09/27 13:13:32;;;;;;;5.20;2.72;;;;;;;;;;5027321;28;20096;-71
2023/09/27 13:15:58;;;;;;;7.20;2.70;;;;;;;;;;5022370;28;20057;-71
2023/09/27 13:18:24;;;;;;;4.00;2.30;;;;;;;;;;5021944;28;20044;-72
2023/09/27 13:20:53;;;;;;;3.53;2.00;;;;;;;;;;5025576;28;20028;-72
2023/09/27 13:23:20;;;;;;;5.05;2.22;;;;;;;;;;5023231;28;20498;-73
2023/09/27 13:25:52;;;;;;;3.83;2.28;;;;;;;;;;5024375;28;20119;-70
2023/09/27 13:28:21;;;;;;;4.47;2.65;;;;;;;;;;5020368;28;20032;-72
2023/09/27 13:30:50;;;;;;;4.68;2.35;;;;;;;;;;5029381;28;20029;-70
2023/09/27 13:33:17;;;;;;;3.40;2.20;;;;;;;;;;5020388;28;20394;-70
2023/09/27 13:35:44;;;;;;;3.83;2.70;;;;;;;;;;5024505;28;20030;-70
2023/09/27 13:38:13;;;;;;;3.00;2.20;;;;;;;;;;5026181;28;20053;-71
2023/09/27 13:40:39;;;;;;;2.13;1.60;;;;;;;;;;5024313;28;20037;-70
2023/09/27 13:43:05;;;;;;;3.85;2.15;;;;;;;;;;5025105;28;20067;-71
2023/09/27 13:45:31;;;;;;;2.15;1.50;;;;;;;;;;5030722;28;20101;-70
2023/09/27 13:47:58;;;;;;;2.85;1.90;;;;;;;;;;5024040;28;20034;-64
2023/09/27 13:50:24;;;;;;;1.70;1.50;;;;;;;;;;5025141;28;20030;-66
2023/09/27 13:52:50;;;;;;;3.53;1.73;;;;;;;;;;5025826;28;20028;-68
2023/09/27 13:55:16;;;;;;;2.53;1.70;;;;;;;;;;5022443;28;20116;-69
2023/09/27 13:57:43;;;;;;;1.88;1.63;;;;;;;;;;5025946;28;20187;-66
2023/09/27 14:00:12;;;;;;;3.97;2.28;;;;;;;;;;5025602;28;20026;-70
2023/09/27 14:02:39;;;;;;;7.60;3.10;;;;;;;;;;5010720;28;20034;-68
2023/09/27 14:05:05;;;;;;;7.43;2.63;;;;;;;;;;5010025;28;20063;-69
2023/09/27 14:07:31;;;;;;;7.07;2.53;;;;;;;;;;5017085;28;20033;-70
2023/09/27 14:09:58;;;;;;;7.70;3.33;;;;;;;;;;5011731;28;20032;-69
2023/09/27 14:12:24;;;;;;;7.53;3.17;;;;;;;;;;5021918;28;20021;-70
2023/09/27 14:14:50;;;;;;;10.93;3.55;;;;;;;;;;5021945;28;20394;-71
2023/09/27 14:17:17;;;;;;;9.00;3.08;;;;;;;;;;5020340;28;20022;-71
2023/09/27 14:19:44;;;;;;;15.13;4.32;;;;;;;;;;5034448;28;20042;-74
2023/09/27 14:22:10;;;;;;;9.85;3.60;;;;;;;;;;5024936;28;20087;-70
2023/09/27 14:24:36;;;;;;;8.25;3.05;;;;;;;;;;5021340;28;20784;-72
2023/09/27 14:27:02;;;;;;;9.70;3.08;;;;;;;;;;5021180;28;20034;-73
2023/09/27 14:29:29;;;;;;;13.30;3.03;;;;;;;;;;5019352;28;20091;-70
2023/09/27 14:31:55;;;;;;;8.02;2.95;;;;;;;;;;5023208;28;20018;-69
2023/09/27 14:34:22;;;;;;;10.00;3.38;;;;;;;;;;5034180;28;20040;-68
2023/09/27 14:36:49;;;;;;;14.05;3.13;;;;;;;;;;5029561;28;20022;-69
2023/09/27 14:39:18;;;;;;;11.77;3.80;;;;;;;;;;5021139;28;20049;-72
2023/09/27 14:41:46;;;;;;;11.68;3.97;;;;;;;;;;5023157;28;20509;-73